Time;durP1;ratioP1;P1;durP2;ratioP2;P2;SDS_P1;SDS_P2;PMS_P1;PMS_P2;Temp;Humidity;BMP_temperature;BMP_pressure;BME280_temperature;BME280_humidity;BME280_pressure;Samples;Min_cycle;Max_cycle;Signal;HPM_P1;HPM_P2
2022/12/02 00:00:34;;;;;;;29.60;26.37;;;;;21.30;101374.00;;;;2075281;28;20225;-51
2022/12/02 00:01:34;;;;;;;33.00;26.80;;;;;21.30;101380.00;;;;2071456;28;20218;-51
2022/12/02 00:02:35;;;;;;;33.93;27.47;;;;;21.30;101382.00;;;;2078669;28;20764;-48
2022/12/02 00:03:36;;;;;;;34.53;28.20;;;;;21.30;101381.00;;;;2079856;28;20205;-57
2022/12/02 00:04:36;;;;;;;33.15;27.90;;;;;21.20;101388.00;;;;2080234;28;20320;-53
2022/12/02 00:05:36;;;;;;;32.90;27.97;;;;;21.20;101370.00;;;;2088022;28;20209;-51
2022/12/02 00:06:37;;;;;;;30.50;26.47;;;;;21.20;101380.00;;;;2087725;28;20281;-50
2022/12/02 00:07:37;;;;;;;32.20;26.77;;;;;21.20;101388.00;;;;2087647;28;20217;-50
2022/12/02 00:08:37;;;;;;;33.17;27.50;;;;;21.20;101371.00;;;;2087059;28;20217;-50
2022/12/02 00:09:38;;;;;;;31.30;25.60;;;;;21.20;101371.00;;;;2087276;28;20953;-50
2022/12/02 00:10:38;;;;;;;28.80;24.97;;;;;21.20;101373.00;;;;2077554;28;20228;-50
2022/12/02 00:11:38;;;;;;;33.67;26.70;;;;;21.20;101379.00;;;;2071255;28;20741;-50
2022/12/02 00:12:38;;;;;;;33.93;26.83;;;;;21.20;101370.00;;;;2078232;28;20604;-50
2022/12/02 00:13:42;;;;;;;33.73;27.13;;;;;21.20;101371.00;;;;2078897;28;20646;-50
2022/12/02 00:14:42;;;;;;;31.13;25.98;;;;;21.20;101371.00;;;;2079968;28;20213;-50
2022/12/02 00:15:43;;;;;;;31.53;26.17;;;;;21.20;101376.00;;;;2079037;28;20214;-51
2022/12/02 00:16:44;;;;;;;32.30;26.65;;;;;21.20;101377.00;;;;2080051;28;20289;-51
2022/12/02 00:17:44;;;;;;;30.60;26.43;;;;;21.20;101374.00;;;;2087870;28;20589;-50
2022/12/02 00:18:44;;;;;;;28.90;25.33;;;;;21.20;101375.00;;;;2085443;28;20215;-50
2022/12/02 00:19:45;;;;;;;31.00;25.60;;;;;21.10;101374.00;;;;2088430;28;20307;-50
2022/12/02 00:20:45;;;;;;;31.93;26.40;;;;;21.10;101379.00;;;;2087349;28;20241;-50
2022/12/02 00:21:46;;;;;;;31.03;25.43;;;;;21.20;101371.00;;;;2084015;28;20216;-50
2022/12/02 00:22:46;;;;;;;29.43;24.27;;;;;21.20;101378.00;;;;2078177;28;20205;-50
2022/12/02 00:23:47;;;;;;;29.50;25.00;;;;;21.10;101370.00;;;;2079960;28;20454;-50
2022/12/02 00:24:47;;;;;;;30.27;24.30;;;;;21.10;101370.00;;;;2079821;28;20209;-51
2022/12/02 00:25:49;;;;;;;29.50;25.17;;;;;21.10;101364.00;;;;2080194;28;20248;-50
2022/12/02 00:26:50;;;;;;;31.73;25.58;;;;;21.10;101366.00;;;;2080229;28;20213;-51
2022/12/02 00:27:50;;;;;;;28.60;23.80;;;;;21.10;101372.00;;;;2080052;28;20232;-50
2022/12/02 00:28:50;;;;;;;30.57;25.43;;;;;21.10;101363.00;;;;2080406;28;20657;-50
2022/12/02 00:29:51;;;;;;;29.20;24.50;;;;;21.10;101357.00;;;;2080188;28;21170;-50
2022/12/02 00:30:51;;;;;;;29.77;24.47;;;;;21.10;101352.00;;;;2080342;28;20213;-50
2022/12/02 00:31:51;;;;;;;31.37;25.40;;;;;21.10;101351.00;;;;2079283;28;20217;-50
2022/12/02 00:32:52;;;;;;;29.77;24.47;;;;;21.10;101346.00;;;;2080180;28;20205;-50
2022/12/02 00:33:53;;;;;;;29.00;24.57;;;;;21.10;101358.00;;;;2080243;28;20221;-50
2022/12/02 00:34:53;;;;;;;27.33;23.58;;;;;21.10;101363.00;;;;2080071;28;20205;-50
2022/12/02 00:35:54;;;;;;;30.73;24.33;;;;;21.00;101362.00;;;;2080372;28;20218;-51
2022/12/02 00:36:54;;;;;;;30.53;25.60;;;;;21.10;101349.00;;;;2080258;28;20202;-50
2022/12/02 00:37:54;;;;;;;26.93;23.77;;;;;21.10;101361.00;;;;2080061;28;20205;-50
2022/12/02 00:38:55;;;;;;;30.10;23.77;;;;;21.10;101345.00;;;;2079711;28;20209;-49
2022/12/02 00:39:55;;;;;;;30.10;24.87;;;;;21.10;101348.00;;;;2079507;28;20221;-51
2022/12/02 00:40:56;;;;;;;28.53;23.57;;;;;21.00;101352.00;;;;2080158;28;20225;-50
2022/12/02 00:41:56;;;;;;;28.80;22.93;;;;;21.00;101348.00;;;;2079411;28;20216;-50
2022/12/02 00:46:30;;;;;;;27.83;24.80;;;;;21.00;101350.00;;;;2080352;28;20209;-50
2022/12/02 00:46:54;;;;;;;27.98;24.10;;;;;21.00;101343.00;;;;2079545;28;20217;-50
2022/12/02 00:47:55;;;;;;;30.10;24.17;;;;;21.00;101339.00;;;;2079498;28;20209;-50
2022/12/02 00:48:55;;;;;;;26.43;22.73;;;;;21.00;101333.00;;;;2080059;28;20221;-51
2022/12/02 00:49:55;;;;;;;27.20;22.93;;;;;21.00;101340.00;;;;2080196;28;20342;-50
2022/12/02 00:50:56;;;;;;;25.70;21.97;;;;;21.00;101336.00;;;;2079937;28;20234;-50
2022/12/02 00:51:56;;;;;;;26.67;21.87;;;;;21.00;101330.00;;;;2083534;28;20228;-51
2022/12/02 00:52:56;;;;;;;25.30;20.90;;;;;21.00;101338.00;;;;2088252;28;20204;-50
2022/12/02 00:53:57;;;;;;;28.00;22.47;;;;;21.00;101334.00;;;;2082164;28;20232;-51
2022/12/02 00:54:57;;;;;;;25.47;22.67;;;;;21.00;101334.00;;;;2080662;28;20264;-50
2022/12/02 00:55:57;;;;;;;27.23;22.70;;;;;21.00;101327.00;;;;2080225;28;20210;-51
2022/12/02 00:56:58;;;;;;;26.73;22.20;;;;;21.00;101332.00;;;;2079930;28;20228;-49
2022/12/02 00:57:59;;;;;;;24.90;21.27;;;;;21.00;101341.00;;;;2085810;28;20213;-51
2022/12/02 00:58:59;;;;;;;25.40;21.23;;;;;21.00;101333.00;;;;2088305;28;20569;-51
2022/12/02 00:59:59;;;;;;;25.50;21.33;;;;;21.00;101335.00;;;;2088050;28;20206;-50
2022/12/02 01:01:00;;;;;;;24.13;20.53;;;;;20.90;101331.00;;;;2087730;28;20205;-50
2022/12/02 01:02:00;;;;;;;24.77;20.83;;;;;21.00;101331.00;;;;2087287;28;20213;-50
2022/12/02 01:03:00;;;;;;;26.37;21.30;;;;;20.90;101322.00;;;;2088144;28;20208;-50
2022/12/02 01:04:01;;;;;;;24.80;21.30;;;;;21.00;101322.00;;;;2080804;28;20212;-50
2022/12/02 01:05:01;;;;;;;23.67;20.10;;;;;21.00;101318.00;;;;2079899;28;20359;-50
2022/12/02 01:06:01;;;;;;;25.00;20.87;;;;;21.00;101313.00;;;;2080019;28;20205;-50
2022/12/02 01:07:02;;;;;;;25.83;20.67;;;;;20.90;101313.00;;;;2078878;28;21258;-50
2022/12/02 01:08:02;;;;;;;24.73;21.00;;;;;20.90;101312.00;;;;2079178;28;20229;-49
2022/12/02 01:09:03;;;;;;;24.53;21.13;;;;;20.90;101318.00;;;;2079670;28;20291;-50
2022/12/02 01:10:03;;;;;;;26.17;21.90;;;;;20.90;101310.00;;;;2079835;28;20214;-50
2022/12/02 01:11:04;;;;;;;23.83;20.40;;;;;20.90;101319.00;;;;2079148;28;20268;-50
2022/12/02 01:12:04;;;;;;;24.10;19.57;;;;;20.90;101316.00;;;;2078042;28;20748;-50
2022/12/02 01:13:04;;;;;;;23.00;19.43;;;;;20.90;101314.00;;;;2079898;28;20329;-50
2022/12/02 01:14:05;;;;;;;24.27;19.93;;;;;20.90;101313.00;;;;2079570;28;20605;-50
2022/12/02 01:15:06;;;;;;;23.27;19.47;;;;;20.90;101312.00;;;;2079624;28;20589;-50
2022/12/02 01:16:06;;;;;;;22.93;19.23;;;;;20.90;101317.00;;;;2078953;28;20280;-50
2022/12/02 01:17:06;;;;;;;21.67;19.33;;;;;20.90;101323.00;;;;2070769;28;20461;-50
2022/12/02 01:18:07;;;;;;;23.40;19.70;;;;;20.90;101320.00;;;;2079118;28;20248;-50
2022/12/02 01:19:07;;;;;;;22.47;19.70;;;;;20.90;101315.00;;;;2079544;28;20214;-50
2022/12/02 01:20:08;;;;;;;25.40;21.10;;;;;20.90;101323.00;;;;2082819;28;20216;-50
2022/12/02 01:21:08;;;;;;;23.67;19.67;;;;;20.90;101319.00;;;;2087509;28;20217;-50
2022/12/02 01:22:08;;;;;;;23.23;20.23;;;;;20.90;101322.00;;;;2078627;28;20978;-50
2022/12/02 01:23:09;;;;;;;24.40;20.13;;;;;20.90;101318.00;;;;2079657;28;20221;-50
2022/12/02 01:24:09;;;;;;;25.23;20.13;;;;;20.90;101311.00;;;;2079856;28;20225;-50
2022/12/02 01:25:09;;;;;;;24.50;20.20;;;;;20.90;101310.00;;;;2079759;28;20289;-51
2022/12/02 01:26:10;;;;;;;23.27;19.00;;;;;20.90;101311.00;;;;2079784;28;20217;-50
2022/12/02 01:27:10;;;;;;;25.40;20.23;;;;;20.80;101327.00;;;;2079717;28;20236;-50
2022/12/02 01:28:10;;;;;;;24.17;20.30;;;;;20.90;101313.00;;;;2079665;28;20251;-50
2022/12/02 01:29:11;;;;;;;24.90;20.40;;;;;20.80;101315.00;;;;2079581;28;20422;-50
2022/12/02 01:30:12;;;;;;;22.80;18.97;;;;;20.90;101318.00;;;;2078818;28;20210;-49
2022/12/02 01:31:13;;;;;;;24.97;19.70;;;;;20.90;101322.00;;;;2081239;28;20240;-50
2022/12/02 01:32:14;;;;;;;23.05;20.13;;;;;20.80;101317.00;;;;2086805;28;20455;-50
2022/12/02 01:33:14;;;;;;;20.90;18.63;;;;;20.90;101328.00;;;;2087704;28;20213;-51
2022/12/02 01:34:14;;;;;;;21.30;19.00;;;;;20.90;101322.00;;;;2087709;28;20216;-50
2022/12/02 01:35:15;;;;;;;22.27;18.97;;;;;20.80;101319.00;;;;2087616;28;20223;-50
2022/12/02 01:36:15;;;;;;;20.00;17.77;;;;;20.80;101324.00;;;;2087730;28;20272;-50
2022/12/02 01:37:15;;;;;;;21.20;18.23;;;;;20.80;101312.00;;;;2084843;28;20587;-50
2022/12/02 01:38:16;;;;;;;21.90;19.37;;;;;20.80;101316.00;;;;2078992;28;20217;-50
2022/12/02 01:39:17;;;;;;;25.05;19.60;;;;;20.90;101317.00;;;;2077657;28;20256;-50
2022/12/02 01:40:18;;;;;;;21.87;19.50;;;;;20.80;101320.00;;;;2078970;28;20302;-50
2022/12/02 01:41:18;;;;;;;21.30;18.70;;;;;20.80;101320.00;;;;2072062;28;20217;-51
2022/12/02 01:42:18;;;;;;;21.90;19.00;;;;;20.80;101319.00;;;;2077823;28;20217;-50
2022/12/02 01:43:18;;;;;;;23.90;20.17;;;;;20.80;101312.00;;;;2078790;28;20217;-50
2022/12/02 01:44:19;;;;;;;22.33;18.53;;;;;20.80;101307.00;;;;2062482;28;20215;-54
2022/12/02 01:45:19;;;;;;;23.60;19.73;;;;;20.80;101307.00;;;;2070720;28;20218;-55
2022/12/02 01:46:20;;;;;;;22.00;18.97;;;;;20.80;101311.00;;;;2066100;28;20220;-50
2022/12/02 01:47:20;;;;;;;21.77;18.27;;;;;20.80;101307.00;;;;2058991;28;20625;-53
2022/12/02 01:48:20;;;;;;;21.70;18.43;;;;;20.80;101317.00;;;;2072679;28;20264;-52
2022/12/02 01:49:21;;;;;;;23.67;19.60;;;;;20.80;101315.00;;;;2084978;28;20201;-50
2022/12/02 01:50:21;;;;;;;21.30;17.43;;;;;20.80;101320.00;;;;2086950;28;20345;-49
2022/12/02 01:51:21;;;;;;;21.30;18.03;;;;;20.80;101329.00;;;;2086923;28;20299;-51
2022/12/02 01:52:22;;;;;;;22.27;18.67;;;;;20.80;101325.00;;;;2084733;28;20209;-50
2022/12/02 01:53:22;;;;;;;23.10;18.40;;;;;20.80;101324.00;;;;2078662;28;20221;-50
2022/12/02 01:54:22;;;;;;;22.10;17.60;;;;;20.80;101327.00;;;;2072264;28;20221;-50
2022/12/02 01:55:24;;;;;;;21.93;17.03;;;;;20.80;101324.00;;;;2078102;28;20240;-50
2022/12/02 01:56:24;;;;;;;22.98;17.83;;;;;20.80;101324.00;;;;2083917;28;20221;-51
2022/12/02 01:57:26;;;;;;;20.77;17.80;;;;;20.80;101321.00;;;;2081023;28;20220;-51
2022/12/02 01:58:27;;;;;;;22.45;17.92;;;;;20.80;101314.00;;;;2078655;28;20539;-51
2022/12/02 01:59:27;;;;;;;20.80;17.75;;;;;20.70;101326.00;;;;2078177;28;20233;-50
2022/12/02 02:00:28;;;;;;;23.60;18.47;;;;;20.70;101322.00;;;;2077981;28;20586;-50
2022/12/02 02:01:30;;;;;;;21.63;18.30;;;;;20.80;101325.00;;;;2078578;28;20676;-50
2022/12/02 02:02:35;;;;;;;23.25;19.13;;;;;20.70;101321.00;;;;2077731;28;20210;-50
2022/12/02 02:03:35;;;;;;;21.05;17.92;;;;;20.70;101312.00;;;;2083994;28;20604;-51
2022/12/02 02:04:36;;;;;;;21.70;17.10;;;;;20.70;101322.00;;;;2087135;28;20287;-49
2022/12/02 02:05:36;;;;;;;21.10;17.47;;;;;20.70;101322.00;;;;2087001;28;20213;-50
2022/12/02 02:06:39;;;;;;;22.93;19.00;;;;;20.70;101321.00;;;;2079236;28;20213;-50
2022/12/02 02:07:39;;;;;;;21.67;17.90;;;;;20.70;101321.00;;;;2078794;28;20245;-50
2022/12/02 02:08:39;;;;;;;22.27;18.43;;;;;20.70;101324.00;;;;2078611;28;20633;-51
2022/12/02 02:09:40;;;;;;;20.23;17.60;;;;;20.70;101318.00;;;;2077938;28;20674;-51
2022/12/02 02:10:41;;;;;;;19.77;16.67;;;;;20.70;101315.00;;;;2086964;28;20261;-50
2022/12/02 02:11:42;;;;;;;24.70;18.25;;;;;20.70;101312.00;;;;2078409;28;20217;-50
2022/12/02 02:12:46;;;;;;;19.90;17.30;;;;;20.70;101312.00;;;;2075886;28;20217;-49
2022/12/02 02:13:46;;;;;;;19.92;17.48;;;;;20.70;101312.00;;;;2078546;28;20221;-50
2022/12/02 02:14:46;;;;;;;19.83;16.80;;;;;20.70;101313.00;;;;2078672;28;20288;-50
2022/12/02 02:15:47;;;;;;;22.10;18.23;;;;;20.70;101312.00;;;;2078166;28;20209;-51
2022/12/02 02:16:47;;;;;;;19.87;16.23;;;;;20.70;101305.00;;;;2078414;28;20260;-50
2022/12/02 02:17:47;;;;;;;21.27;18.10;;;;;20.70;101306.00;;;;2079539;28;20213;-50
2022/12/02 02:18:48;;;;;;;19.47;17.13;;;;;20.70;101301.00;;;;2082942;28;20272;-50
2022/12/02 02:19:48;;;;;;;21.00;17.00;;;;;20.60;101312.00;;;;2087186;28;20212;-50
2022/12/02 02:20:48;;;;;;;20.43;16.77;;;;;20.60;101306.00;;;;2087014;28;20418;-50
2022/12/02 02:21:49;;;;;;;22.73;17.43;;;;;20.60;101308.00;;;;2086134;28;20296;-49
2022/12/02 02:22:57;;;;;;;19.87;16.70;;;;;20.70;101307.00;;;;2085795;28;20213;-50
2022/12/02 02:23:58;;;;;;;19.48;16.77;;;;;20.70;101311.00;;;;2085382;28;20208;-50
2022/12/02 02:24:58;;;;;;;20.97;16.80;;;;;20.60;101317.00;;;;2069909;28;20206;-50
2022/12/02 02:25:58;;;;;;;20.10;16.20;;;;;20.60;101309.00;;;;2086654;28;20701;-50
2022/12/02 02:26:59;;;;;;;21.60;17.10;;;;;20.60;101309.00;;;;2087372;28;20689;-50
2022/12/02 02:28:00;;;;;;;20.57;17.20;;;;;20.60;101306.00;;;;2081988;28;20277;-50
2022/12/02 02:29:00;;;;;;;19.37;16.47;;;;;20.60;101305.00;;;;2079430;28;20323;-51
2022/12/02 02:30:00;;;;;;;20.10;16.70;;;;;20.60;101306.00;;;;2077629;28;20244;-50
2022/12/02 02:31:01;;;;;;;19.50;16.53;;;;;20.60;101300.00;;;;2079095;28;20213;-50
2022/12/02 02:32:01;;;;;;;20.50;16.27;;;;;20.60;101296.00;;;;2077922;28;20723;-49
2022/12/02 02:33:03;;;;;;;18.90;16.10;;;;;20.60;101300.00;;;;2078672;28;20213;-50
2022/12/02 02:34:04;;;;;;;19.35;16.33;;;;;20.60;101293.00;;;;2073945;28;20214;-50
2022/12/02 02:35:04;;;;;;;21.73;17.10;;;;;20.60;101301.00;;;;2062732;28;20271;-48
2022/12/02 02:36:05;;;;;;;23.60;18.00;;;;;20.60;101297.00;;;;2079016;28;20240;-48
2022/12/02 02:37:05;;;;;;;19.37;16.33;;;;;20.60;101303.00;;;;2077794;28;20214;-49
2022/12/02 02:38:06;;;;;;;19.50;16.13;;;;;20.60;101305.00;;;;2079130;28;20212;-48
2022/12/02 02:39:06;;;;;;;20.23;17.50;;;;;20.60;101301.00;;;;2079078;28;20225;-49
2022/12/02 02:40:07;;;;;;;19.50;16.47;;;;;20.60;101301.00;;;;2079374;28;20464;-48
2022/12/02 02:41:07;;;;;;;21.43;16.80;;;;;20.60;101298.00;;;;2079607;28;20210;-48
2022/12/02 02:42:07;;;;;;;21.00;16.60;;;;;20.60;101293.00;;;;2078891;28;20411;-49
2022/12/02 02:43:08;;;;;;;17.83;15.07;;;;;20.60;101293.00;;;;2079384;28;20213;-50
2022/12/02 02:44:08;;;;;;;18.50;15.43;;;;;20.60;101297.00;;;;2079328;28;20221;-50
2022/12/02 02:45:08;;;;;;;20.50;16.60;;;;;20.60;101299.00;;;;2079092;28;20291;-49
2022/12/02 02:46:09;;;;;;;21.20;17.07;;;;;20.60;101285.00;;;;2080119;28;20611;-49
2022/12/02 02:47:09;;;;;;;19.87;16.07;;;;;20.60;101293.00;;;;2079018;28;20208;-49
2022/12/02 02:48:10;;;;;;;18.87;16.40;;;;;20.60;101298.00;;;;2084035;28;20233;-49
2022/12/02 02:49:11;;;;;;;18.50;15.32;;;;;20.60;101294.00;;;;2079056;28;20228;-50
2022/12/02 02:50:11;;;;;;;20.50;16.80;;;;;20.60;101287.00;;;;2070937;28;20301;-49
2022/12/02 02:51:11;;;;;;;17.47;14.80;;;;;20.50;101285.00;;;;2078643;28;20872;-51
2022/12/02 02:52:12;;;;;;;18.87;16.17;;;;;20.50;101280.00;;;;2078464;28;20236;-50
2022/12/02 02:53:13;;;;;;;18.60;15.40;;;;;20.60;101287.00;;;;2077412;28;20644;-50
2022/12/02 02:54:13;;;;;;;20.13;16.33;;;;;20.60;101282.00;;;;2077390;28;20218;-51
2022/12/02 02:55:17;;;;;;;17.20;14.70;;;;;20.60;101272.00;;;;2078845;28;20205;-50
2022/12/02 02:56:17;;;;;;;19.60;16.05;;;;;20.60;101281.00;;;;2072492;28;20226;-50
2022/12/02 02:57:18;;;;;;;17.53;14.67;;;;;20.60;101273.00;;;;2087365;28;20239;-52
2022/12/02 02:58:20;;;;;;;18.80;15.37;;;;;20.60;101274.00;;;;2087427;28;20205;-51
2022/12/02 02:59:20;;;;;;;20.80;16.60;;;;;20.50;101270.00;;;;2086598;28;20282;-50
2022/12/02 03:00:21;;;;;;;17.63;14.67;;;;;20.60;101277.00;;;;2085333;28;20645;-52
2022/12/02 03:01:26;;;;;;;20.40;16.83;;;;;20.60;101272.00;;;;2076224;28;21070;-52
2022/12/02 03:02:27;;;;;;;20.30;16.35;;;;;20.50;101266.00;;;;2078067;28;20296;-51
2022/12/02 03:03:31;;;;;;;19.50;15.73;;;;;20.50;101271.00;;;;2069894;28;20210;-51
2022/12/02 03:04:32;;;;;;;18.20;14.90;;;;;20.50;101265.00;;;;2063081;28;20218;-52
2022/12/02 03:05:32;;;;;;;17.93;14.93;;;;;20.50;101263.00;;;;2074992;28;20315;-51
2022/12/02 03:06:33;;;;;;;18.90;16.23;;;;;20.50;101264.00;;;;2074503;28;20258;-51
2022/12/02 03:07:33;;;;;;;20.17;16.03;;;;;20.50;101273.00;;;;2086039;28;20217;-51
2022/12/02 03:08:33;;;;;;;17.77;15.80;;;;;20.50;101263.00;;;;2078108;28;20347;-49
2022/12/02 03:09:34;;;;;;;20.20;16.33;;;;;20.50;101253.00;;;;2075174;28;20218;-51
2022/12/02 03:10:34;;;;;;;20.17;16.27;;;;;20.50;101253.00;;;;2073909;28;20218;-52
2022/12/02 03:11:34;;;;;;;16.90;14.73;;;;;20.50;101256.00;;;;2069286;28;20295;-51
2022/12/02 03:12:35;;;;;;;18.97;15.43;;;;;20.50;101256.00;;;;2068291;28;20265;-52
2022/12/02 03:13:36;;;;;;;20.23;15.63;;;;;20.50;101255.00;;;;2068988;28;20222;-51
2022/12/02 03:14:36;;;;;;;18.50;15.20;;;;;20.50;101258.00;;;;2069806;28;20222;-50
2022/12/02 03:15:36;;;;;;;21.23;16.43;;;;;20.50;101262.00;;;;2069776;28;20568;-51
2022/12/02 03:16:37;;;;;;;19.90;15.80;;;;;20.50;101252.00;;;;2077535;28;20217;-50
2022/12/02 03:17:37;;;;;;;19.83;16.07;;;;;20.50;101256.00;;;;2078240;28;20746;-52
2022/12/02 03:18:37;;;;;;;22.63;16.27;;;;;20.50;101254.00;;;;2077958;28;20594;-51
2022/12/02 03:19:38;;;;;;;20.00;16.00;;;;;20.50;101250.00;;;;2078206;28;20575;-51
2022/12/02 03:20:38;;;;;;;22.03;16.63;;;;;20.50;101252.00;;;;2078125;28;20213;-51
2022/12/02 03:21:39;;;;;;;20.20;16.63;;;;;20.50;101256.00;;;;2076703;28;20541;-51
2022/12/02 03:22:39;;;;;;;19.93;16.00;;;;;20.50;101255.00;;;;2076160;28;20210;-52
2022/12/02 03:23:39;;;;;;;20.07;16.17;;;;;20.50;101251.00;;;;2076990;28;20236;-48
2022/12/02 03:24:40;;;;;;;19.63;16.40;;;;;20.50;101257.00;;;;2081304;28;20266;-52
2022/12/02 03:25:40;;;;;;;19.90;15.90;;;;;20.50;101256.00;;;;2086754;28;20216;-51
2022/12/02 03:26:41;;;;;;;18.77;15.37;;;;;20.40;101257.00;;;;2086987;28;20205;-50
2022/12/02 03:27:41;;;;;;;19.50;16.20;;;;;20.40;101253.00;;;;2082045;28;20267;-52
2022/12/02 03:28:41;;;;;;;20.60;15.43;;;;;20.40;101257.00;;;;2069592;28;20206;-51
2022/12/02 03:29:42;;;;;;;22.77;16.70;;;;;20.40;101256.00;;;;2078009;28;20550;-51
2022/12/02 03:30:42;;;;;;;17.97;14.90;;;;;20.40;101250.00;;;;2078828;28;20231;-50
2022/12/02 03:31:42;;;;;;;19.33;16.17;;;;;20.40;101252.00;;;;2077272;28;20239;-50
2022/12/02 03:32:43;;;;;;;17.90;15.47;;;;;20.40;101240.00;;;;2077179;28;20351;-50
2022/12/02 03:33:43;;;;;;;20.70;16.20;;;;;20.40;101240.00;;;;2077745;28;20323;-51
2022/12/02 03:34:43;;;;;;;19.50;16.00;;;;;20.50;101246.00;;;;2076028;28;20209;-52
2022/12/02 03:35:44;;;;;;;19.67;15.63;;;;;20.40;101249.00;;;;2069368;28;20783;-50
2022/12/02 03:36:44;;;;;;;19.93;16.00;;;;;20.40;101242.00;;;;2073213;28;20567;-51
2022/12/02 03:37:44;;;;;;;18.80;16.10;;;;;20.40;101250.00;;;;2075197;28;20218;-51
2022/12/02 03:38:45;;;;;;;19.30;15.00;;;;;20.50;101256.00;;;;2079450;28;20213;-50
2022/12/02 03:39:45;;;;;;;18.43;15.17;;;;;20.40;101257.00;;;;2078435;28;20229;-50
2022/12/02 03:40:45;;;;;;;17.90;14.83;;;;;20.40;101256.00;;;;2084724;28;20266;-51
2022/12/02 03:41:46;;;;;;;20.50;16.80;;;;;20.40;101243.00;;;;2085896;28;20304;-52
2022/12/02 03:42:46;;;;;;;19.50;15.83;;;;;20.40;101249.00;;;;2085180;28;20282;-51
2022/12/02 03:43:47;;;;;;;22.43;16.23;;;;;20.40;101247.00;;;;2086101;28;20208;-51
2022/12/02 03:44:47;;;;;;;18.90;15.27;;;;;20.40;101248.00;;;;2086093;28;20254;-51
2022/12/02 03:45:48;;;;;;;21.10;16.10;;;;;20.40;101242.00;;;;2077511;28;20253;-50
2022/12/02 03:46:48;;;;;;;17.23;14.30;;;;;20.40;101240.00;;;;2069765;28;20720;-52
2022/12/02 03:47:48;;;;;;;19.60;15.13;;;;;20.40;101240.00;;;;2085875;28;20626;-51
2022/12/02 03:48:49;;;;;;;18.67;14.50;;;;;20.40;101244.00;;;;2077677;28;20240;-52
2022/12/02 03:49:49;;;;;;;19.17;15.03;;;;;20.30;101242.00;;;;2077623;28;20256;-51
2022/12/02 03:50:50;;;;;;;17.33;14.70;;;;;20.40;101236.00;;;;2085662;28;20312;-51
2022/12/02 03:51:50;;;;;;;19.07;14.10;;;;;20.40;101244.00;;;;2085043;28;20226;-50
2022/12/02 03:52:50;;;;;;;19.57;15.37;;;;;20.40;101230.00;;;;2085908;28;20711;-51
2022/12/02 03:53:51;;;;;;;18.37;15.80;;;;;20.40;101230.00;;;;2078205;28;20217;-52
2022/12/02 03:54:51;;;;;;;18.40;14.50;;;;;20.40;101227.00;;;;2077821;28;20213;-51
2022/12/02 03:55:51;;;;;;;18.80;15.10;;;;;20.40;101226.00;;;;2079067;28;20300;-52
2022/12/02 03:56:52;;;;;;;19.63;15.80;;;;;20.40;101237.00;;;;2078455;28;20213;-50
2022/12/02 03:57:52;;;;;;;18.00;15.50;;;;;20.40;101224.00;;;;2078521;28;20210;-48
2022/12/02 03:58:52;;;;;;;19.40;15.27;;;;;20.40;101234.00;;;;2083367;28;20244;-50
2022/12/02 03:59:53;;;;;;;19.33;15.97;;;;;20.40;101231.00;;;;2086759;28;20216;-51
2022/12/02 04:00:53;;;;;;;21.00;16.67;;;;;20.30;101233.00;;;;2086518;28;20211;-51
2022/12/02 04:01:54;;;;;;;18.70;14.70;;;;;20.30;101225.00;;;;2085733;28;20216;-50
2022/12/02 04:02:54;;;;;;;17.60;14.73;;;;;20.30;101230.00;;;;2086669;28;20209;-51
2022/12/02 04:03:54;;;;;;;22.40;17.23;;;;;20.30;101220.00;;;;2086406;28;20288;-51
2022/12/02 04:04:55;;;;;;;17.97;15.20;;;;;20.30;101226.00;;;;2086473;28;20209;-50
2022/12/02 04:05:55;;;;;;;19.83;15.73;;;;;20.40;101224.00;;;;2086523;28;20670;-50
2022/12/02 04:06:55;;;;;;;20.40;15.27;;;;;20.30;101226.00;;;;2086788;28;20728;-51
2022/12/02 04:07:56;;;;;;;19.87;15.30;;;;;20.30;101220.00;;;;2086977;28;20730;-51
2022/12/02 04:08:56;;;;;;;18.97;16.07;;;;;20.30;101227.00;;;;2080401;28;20627;-51
2022/12/02 04:09:56;;;;;;;19.17;15.40;;;;;20.30;101225.00;;;;2078878;28;20692;-51
2022/12/02 04:10:57;;;;;;;18.03;15.03;;;;;20.30;101225.00;;;;2082320;28;20608;-49
2022/12/02 04:11:57;;;;;;;20.03;16.13;;;;;20.30;101219.00;;;;2077723;28;20565;-51
2022/12/02 04:12:57;;;;;;;17.10;14.97;;;;;20.30;101213.00;;;;2079012;28;20597;-51
2022/12/02 04:13:58;;;;;;;19.73;15.13;;;;;20.30;101217.00;;;;2078873;28;20571;-51
2022/12/02 04:14:58;;;;;;;19.07;15.50;;;;;20.30;101221.00;;;;2078618;28;20615;-51
2022/12/02 04:15:58;;;;;;;19.90;15.73;;;;;20.30;101220.00;;;;2078236;28;20707;-51
2022/12/02 04:16:59;;;;;;;21.20;16.27;;;;;20.30;101219.00;;;;2077913;28;20670;-51
2022/12/02 04:17:59;;;;;;;20.20;15.73;;;;;20.30;101221.00;;;;2077991;28;20681;-51
2022/12/02 04:18:59;;;;;;;20.97;15.50;;;;;20.30;101220.00;;;;2078698;28;20209;-51
2022/12/02 04:20:00;;;;;;;19.53;16.00;;;;;20.30;101208.00;;;;2078907;28;20259;-51
2022/12/02 04:21:00;;;;;;;17.67;14.20;;;;;20.30;101216.00;;;;2078698;28;20744;-51
2022/12/02 04:22:00;;;;;;;18.97;16.07;;;;;20.30;101213.00;;;;2077264;28;20765;-51
2022/12/02 04:23:01;;;;;;;19.50;15.43;;;;;20.30;101221.00;;;;2079587;28;20921;-52
2022/12/02 04:24:01;;;;;;;19.90;15.50;;;;;20.30;101211.00;;;;2088201;28;20626;-51
2022/12/02 04:25:03;;;;;;;20.07;16.17;;;;;20.30;101211.00;;;;2088607;28;20270;-51
2022/12/02 04:26:04;;;;;;;19.65;15.38;;;;;20.30;101211.00;;;;2088280;28;20247;-51
2022/12/02 04:27:04;;;;;;;16.93;14.20;;;;;20.30;101210.00;;;;2088234;28;20262;-51
2022/12/02 04:28:05;;;;;;;17.53;14.77;;;;;20.30;101212.00;;;;2087158;28;20627;-52
2022/12/02 04:29:05;;;;;;;21.10;15.53;;;;;20.20;101209.00;;;;2088605;28;20243;-51
2022/12/02 04:30:06;;;;;;;21.20;15.97;;;;;20.30;101198.00;;;;2088129;28;20208;-51
2022/12/02 04:31:06;;;;;;;19.03;15.57;;;;;20.20;101201.00;;;;2087449;28;20217;-50
2022/12/02 04:32:06;;;;;;;19.13;15.10;;;;;20.20;101202.00;;;;2087303;28;20447;-51
2022/12/02 04:33:07;;;;;;;20.83;15.40;;;;;20.30;101207.00;;;;2088288;28;20228;-51
2022/12/02 04:34:07;;;;;;;19.90;15.10;;;;;20.30;101204.00;;;;2088302;28;20240;-52
2022/12/02 04:35:08;;;;;;;18.87;15.40;;;;;20.30;101203.00;;;;2088395;28;20215;-52
2022/12/02 04:36:08;;;;;;;20.00;15.20;;;;;20.30;101206.00;;;;2087622;28;20217;-52
2022/12/02 04:37:08;;;;;;;19.53;15.40;;;;;20.30;101208.00;;;;2088525;28;20575;-50
2022/12/02 04:38:09;;;;;;;21.00;15.67;;;;;20.30;101207.00;;;;2087638;28;20685;-51
2022/12/02 04:39:09;;;;;;;19.67;16.10;;;;;20.20;101207.00;;;;2088266;28;20224;-50
2022/12/02 04:40:10;;;;;;;21.30;16.33;;;;;20.30;101202.00;;;;2078708;28;20225;-51
2022/12/02 04:41:10;;;;;;;19.43;15.53;;;;;20.20;101209.00;;;;2071216;28;20214;-51
2022/12/02 04:42:10;;;;;;;18.27;15.30;;;;;20.20;101149.00;;;;2079308;28;20232;-50
2022/12/02 04:43:11;;;;;;;19.07;15.53;;;;;20.20;101200.00;;;;2080094;28;20634;-49
2022/12/02 04:44:11;;;;;;;20.23;15.10;;;;;20.20;101203.00;;;;2080028;28;20584;-50
2022/12/02 04:45:11;;;;;;;21.27;15.80;;;;;20.20;101200.00;;;;2084063;28;20221;-49
2022/12/02 04:46:12;;;;;;;20.83;16.17;;;;;20.20;101208.00;;;;2079310;28;20224;-49
2022/12/02 04:47:12;;;;;;;18.90;15.33;;;;;20.20;101202.00;;;;2087721;28;20220;-50
2022/12/02 04:48:12;;;;;;;19.40;15.87;;;;;20.20;101191.00;;;;2088008;28;20213;-49
2022/12/02 04:49:13;;;;;;;19.00;15.63;;;;;20.20;101196.00;;;;2088042;28;20217;-49
2022/12/02 04:50:13;;;;;;;21.43;16.30;;;;;20.20;101192.00;;;;2088383;28;20232;-51
2022/12/02 04:51:13;;;;;;;20.77;16.27;;;;;20.20;101194.00;;;;2082027;28;20228;-52
2022/12/02 04:52:14;;;;;;;18.40;15.23;;;;;20.20;101192.00;;;;2079111;28;20209;-51
2022/12/02 04:53:14;;;;;;;20.90;15.60;;;;;20.20;101202.00;;;;2079916;28;20216;-51
2022/12/02 04:54:15;;;;;;;20.00;16.07;;;;;20.20;101196.00;;;;2079952;28;20213;-51
2022/12/02 04:55:15;;;;;;;18.83;15.57;;;;;20.20;101199.00;;;;2081030;28;20205;-52